createdAt,value
2022-10-09T00:01:12.649Z,0.70
2022-10-09T00:03:41.946Z,0.80
2022-10-09T00:06:11.654Z,0.80
2022-10-09T00:08:40.242Z,1.08
2022-10-09T00:11:08.725Z,0.70
2022-10-09T00:13:36.637Z,1.30
2022-10-09T00:16:10.404Z,0.77
2022-10-09T00:18:37.592Z,0.88
2022-10-09T00:21:06.275Z,0.80
2022-10-09T00:23:33.338Z,1.13
2022-10-09T00:26:01.661Z,0.90
2022-10-09T00:28:35.340Z,1.02
2022-10-09T00:31:09.208Z,0.95
2022-10-09T00:33:37.133Z,0.88
2022-10-09T00:36:09.766Z,0.75
2022-10-09T00:38:36.920Z,0.90
2022-10-09T00:41:04.164Z,0.88
2022-10-09T00:43:55.788Z,0.82
2022-10-09T00:49:13.486Z,0.60
2022-10-09T00:51:43.409Z,0.57
2022-10-09T00:54:13.586Z,0.70
2022-10-09T00:56:40.569Z,0.70
2022-10-09T00:59:08.176Z,0.68
2022-10-09T01:01:35.230Z,0.65
2022-10-09T01:04:02.126Z,0.50
2022-10-09T01:06:41.299Z,1.35
2022-10-09T01:09:20.076Z,0.82
2022-10-09T01:12:12.923Z,0.73
2022-10-09T01:14:51.915Z,0.77
2022-10-09T01:17:33.031Z,0.70
2022-10-09T01:20:02.777Z,0.77
2022-10-09T01:22:32.655Z,0.90
2022-10-09T01:25:06.873Z,0.68
2022-10-09T01:27:37.602Z,0.63
2022-10-09T01:30:09.214Z,0.57
2022-10-09T01:32:41.372Z,0.63
2022-10-09T01:35:11.146Z,0.63
2022-10-09T01:37:40.792Z,0.70
2022-10-09T01:40:09.330Z,0.50
2022-10-09T01:42:36.281Z,0.90
2022-10-09T01:45:03.632Z,0.70
2022-10-09T01:47:30.779Z,0.80
2022-10-09T01:50:23.214Z,0.77
2022-10-09T01:53:07.722Z,0.60
2022-10-09T01:56:03.649Z,0.85
2022-10-09T01:58:35.765Z,0.52
2022-10-09T02:01:15.717Z,0.70
2022-10-09T02:03:46.923Z,0.60
2022-10-09T02:06:16.258Z,0.60
2022-10-09T02:08:45.919Z,0.80
2022-10-09T02:11:17.438Z,0.68
2022-10-09T02:13:46.626Z,0.73
2022-10-09T02:16:29.433Z,0.50
2022-10-09T02:19:01.964Z,0.80
2022-10-09T02:24:22.943Z,0.60
2022-10-09T02:26:53.159Z,0.73
2022-10-09T02:29:20.671Z,0.75
2022-10-09T02:31:47.721Z,0.80
2022-10-09T02:34:18.196Z,0.50
2022-10-09T02:36:46.633Z,0.90
2022-10-09T02:39:14.246Z,0.82
2022-10-09T02:41:41.177Z,1.00
2022-10-09T02:44:08.493Z,0.85
2022-10-09T02:46:35.702Z,0.70
2022-10-09T02:49:02.831Z,0.70
2022-10-09T02:51:29.777Z,0.77
2022-10-09T02:53:57.338Z,0.90
2022-10-09T02:56:24.380Z,1.05
2022-10-09T02:58:51.487Z,0.63
2022-10-09T03:01:19.120Z,1.05
2022-10-09T03:03:46.607Z,0.90
2022-10-09T03:06:16.490Z,0.95
2022-10-09T03:08:46.030Z,0.88
2022-10-09T03:11:15.268Z,0.85
2022-10-09T03:13:42.066Z,0.90
2022-10-09T03:16:11.874Z,0.90
2022-10-09T03:18:39.494Z,1.15
2022-10-09T03:21:08.028Z,0.80
2022-10-09T03:23:36.035Z,0.65
2022-10-09T03:26:06.678Z,0.93
2022-10-09T03:28:36.080Z,1.33
2022-10-09T03:31:03.663Z,0.75
2022-10-09T03:33:30.674Z,0.95
2022-10-09T03:35:57.622Z,0.80
2022-10-09T03:38:24.625Z,1.05
2022-10-09T03:40:51.620Z,0.98
2022-10-09T03:43:18.823Z,0.90
2022-10-09T03:45:45.706Z,1.23
2022-10-09T03:48:13.628Z,1.30
2022-10-09T03:50:41.655Z,0.90
2022-10-09T03:53:10.395Z,1.33
2022-10-09T03:55:37.647Z,0.90
2022-10-09T03:58:04.945Z,1.40
2022-10-09T16:08:50.975Z,3.35
2022-10-09T16:11:21.903Z,3.55
2022-10-09T16:13:52.385Z,4.40
2022-10-09T16:16:22.973Z,5.57
2022-10-09T16:18:49.917Z,4.57
2022-10-09T16:21:22.278Z,6.55
2022-10-09T16:23:53.288Z,4.22
2022-10-09T16:26:23.238Z,3.30
2022-10-09T16:28:51.931Z,3.17
2022-10-09T16:31:21.620Z,3.05
2022-10-09T16:33:48.725Z,3.75
2022-10-09T16:36:16.026Z,3.30
2022-10-09T16:38:42.881Z,3.67
2022-10-09T16:41:18.061Z,4.32
2022-10-09T16:43:47.101Z,5.18
2022-10-09T16:46:26.049Z,3.72
2022-10-09T16:48:55.216Z,4.50
2022-10-09T16:51:30.672Z,4.63
2022-10-09T16:54:00.189Z,8.88
2022-10-09T16:56:30.152Z,6.03
2022-10-09T16:59:00.007Z,4.38
2022-10-09T17:01:28.522Z,4.93
2022-10-09T17:04:00.153Z,5.38
2022-10-09T17:06:27.969Z,6.45
2022-10-09T17:08:57.764Z,4.78
2022-10-09T17:11:26.077Z,4.38
2022-10-09T17:13:56.898Z,3.60
2022-10-09T17:16:26.691Z,4.78
2022-10-09T17:18:54.865Z,3.75
2022-10-09T17:21:21.883Z,4.70
2022-10-09T17:23:52.706Z,6.15
2022-10-09T17:26:20.891Z,3.50
2022-10-09T17:28:48.761Z,3.60
2022-10-09T17:31:18.564Z,5.68
2022-10-09T17:33:48.503Z,12.57
2022-10-09T17:36:18.691Z,6.53
2022-10-09T17:38:46.500Z,6.28
2022-10-09T17:41:15.243Z,9.13
2022-10-09T17:43:42.392Z,7.05
2022-10-09T17:46:09.348Z,8.73
2022-10-09T17:48:39.455Z,7.95
2022-10-09T17:51:06.343Z,8.60
2022-10-09T17:53:33.295Z,12.13
2022-10-09T17:56:03.772Z,7.93
2022-10-09T17:58:31.067Z,6.40
2022-10-09T18:00:58.418Z,5.15
2022-10-09T18:03:25.334Z,3.35
2022-10-09T18:05:53.080Z,5.38
2022-10-09T18:08:20.396Z,6.15
2022-10-09T18:10:47.647Z,4.95
2022-10-09T18:13:15.007Z,5.07
2022-10-09T18:15:44.199Z,7.43
2022-10-09T18:18:11.848Z,6.53
2022-10-09T18:20:40.338Z,3.88
2022-10-09T18:23:09.032Z,4.13
2022-10-09T18:25:41.350Z,4.10
2022-10-09T18:28:08.526Z,4.20
2022-10-09T18:30:41.283Z,3.30
2022-10-09T18:33:08.233Z,2.58
2022-10-09T18:35:37.234Z,2.33
2022-10-09T18:38:04.941Z,3.03
2022-10-09T18:40:32.562Z,3.17
2022-10-09T18:42:59.534Z,3.28
2022-10-09T18:45:26.658Z,3.47
2022-10-09T18:47:53.886Z,2.90
2022-10-09T18:50:22.577Z,6.10
2022-10-09T18:52:49.877Z,5.65
2022-10-09T18:55:19.174Z,14.10
2022-10-09T18:57:47.531Z,9.20
2022-10-09T19:00:15.944Z,13.85
2022-10-09T19:02:43.200Z,21.33
2022-10-09T19:05:10.592Z,15.95
2022-10-09T19:07:38.243Z,8.82
2022-10-09T19:10:07.199Z,9.60
2022-10-09T19:12:34.767Z,11.20
2022-10-09T19:15:02.107Z,7.28
2022-10-09T19:17:29.205Z,7.90
2022-10-09T19:19:56.206Z,7.60
2022-10-09T19:22:24.143Z,6.97
2022-10-09T19:24:51.227Z,6.35
2022-10-09T19:27:18.257Z,7.68
2022-10-09T19:29:45.212Z,7.57
2022-10-09T19:32:12.578Z,6.32
2022-10-09T19:34:40.223Z,4.53
2022-10-09T19:37:07.905Z,4.68
2022-10-09T19:39:34.874Z,3.38
2022-10-09T19:42:02.400Z,3.08
2022-10-09T19:44:29.357Z,2.40
2022-10-09T19:46:56.641Z,3.42
2022-10-09T19:49:23.688Z,3.22
2022-10-09T19:51:50.944Z,3.90
2022-10-09T19:54:18.042Z,2.88
2022-10-09T19:56:45.341Z,2.75
2022-10-09T19:59:12.964Z,2.78
2022-10-09T20:01:40.662Z,2.72
2022-10-09T20:04:10.784Z,3.08
2022-10-09T20:06:40.300Z,2.10
2022-10-09T20:09:09.141Z,1.95
2022-10-09T20:11:36.751Z,2.30
2022-10-09T20:14:04.551Z,3.17
2022-10-09T20:16:33.707Z,9.25
2022-10-09T20:19:02.025Z,3.03
2022-10-09T20:21:30.667Z,1.40
2022-10-09T20:24:00.574Z,1.88
2022-10-09T20:26:28.499Z,1.60
2022-10-09T20:28:55.675Z,3.40
2022-10-09T20:31:25.619Z,8.20
2022-10-09T20:33:53.962Z,7.05
2022-10-09T20:36:33.583Z,4.97
2022-10-09T20:39:03.908Z,4.60
2022-10-09T20:41:31.627Z,3.53
2022-10-09T20:44:00.645Z,4.40
2022-10-09T20:46:30.224Z,17.15
2022-10-09T20:48:57.520Z,7.63
2022-10-09T20:51:25.286Z,5.93
2022-10-09T20:53:56.054Z,4.55
2022-10-09T20:56:24.663Z,5.63
2022-10-09T20:58:51.740Z,11.15
2022-10-09T21:01:19.716Z,5.20
2022-10-09T21:03:47.085Z,7.15
2022-10-09T21:06:16.946Z,4.05
2022-10-09T21:08:44.189Z,6.75
2022-10-09T21:11:13.901Z,5.05
2022-10-09T21:13:40.803Z,7.05
2022-10-09T21:16:10.771Z,6.75
2022-10-09T21:18:38.831Z,5.32
2022-10-09T21:21:17.146Z,8.38
2022-10-09T21:23:45.590Z,7.45
2022-10-09T21:26:17.127Z,7.10
2022-10-09T21:31:23.573Z,6.57
2022-10-09T21:33:50.822Z,5.53
2022-10-09T21:36:25.811Z,5.10
2022-10-09T21:38:52.752Z,5.68
2022-10-09T21:41:19.547Z,5.03
2022-10-09T21:43:46.682Z,5.13
2022-10-09T21:46:14.866Z,4.82
2022-10-09T21:48:41.703Z,4.70
2022-10-09T21:51:08.708Z,4.32
2022-10-09T21:53:35.660Z,6.13
2022-10-09T21:56:04.349Z,5.30
2022-10-09T21:58:31.195Z,4.95
2022-10-09T22:01:00.406Z,5.47
2022-10-09T22:03:28.951Z,5.78
2022-10-09T22:05:55.951Z,6.15
2022-10-09T22:08:23.312Z,7.75
2022-10-09T22:10:50.730Z,6.55
2022-10-09T22:13:18.673Z,6.03
2022-10-09T22:15:50.167Z,15.30
2022-10-09T22:18:17.946Z,6.18
2022-10-09T22:20:47.443Z,3.55
2022-10-09T22:23:15.006Z,5.72
2022-10-09T22:25:42.049Z,6.00
2022-10-09T22:28:08.925Z,5.10
2022-10-09T22:30:35.788Z,9.75
2022-10-09T22:33:02.690Z,10.48
2022-10-09T22:35:29.479Z,3.95
2022-10-09T22:37:57.508Z,6.22
2022-10-09T22:40:24.847Z,7.15
2022-10-09T22:42:51.882Z,5.20
2022-10-09T22:45:19.155Z,5.13
2022-10-09T22:47:49.217Z,4.70
2022-10-09T22:50:16.055Z,5.25
2022-10-09T22:52:42.751Z,4.15
2022-10-09T22:55:09.844Z,5.60
2022-10-09T22:57:36.649Z,5.25
2022-10-09T23:00:05.175Z,5.65
2022-10-09T23:02:31.999Z,5.70
2022-10-09T23:04:58.860Z,3.85
2022-10-09T23:07:25.809Z,5.85
2022-10-09T23:09:52.706Z,5.95
2022-10-09T23:12:19.592Z,5.30
2022-10-09T23:14:46.413Z,5.32
2022-10-09T23:17:13.211Z,15.90
2022-10-09T23:19:40.014Z,6.03
2022-10-09T23:22:06.907Z,3.03
2022-10-09T23:24:33.752Z,4.97
2022-10-09T23:27:00.630Z,24.95
2022-10-09T23:29:27.432Z,4.47
2022-10-09T23:31:54.286Z,5.72
2022-10-09T23:34:21.337Z,5.75
2022-10-09T23:36:48.167Z,3.53
2022-10-09T23:39:15.169Z,6.68
2022-10-09T23:41:42.015Z,3.25
2022-10-09T23:44:08.965Z,5.50
2022-10-09T23:46:37.749Z,6.18
2022-10-09T23:49:05.448Z,4.07
2022-10-09T23:51:32.459Z,8.68
2022-10-09T23:54:00.269Z,3.95
2022-10-09T23:56:30.637Z,2.70
2022-10-09T23:58:59.068Z,3.00
